Terminal Aerodrome Forecast
Issued by NWS

Home | Current Version | Previous Version | Text Only | Print | Product List | Glossary On
Versions: 1 2 3 4 5 6 7 8 9 10 11 12 13 14 15 16 17 18
362
FTUS41 KBGM 181144
TAFELM
TAF
KELM 181144Z 1812/1912 23006KT P6SM SCT035 BKN120
      TEMPO 1812/1814 -SHRA SCT015 BKN025
     FM181500 22010KT P6SM BKN040 BKN100
     FM182100 24010KT P6SM SCT050 BKN200 PROB30 1823/1901 5SM -TSRA
      BKN050CB
     FM190300 VRB03KT P6SM BKN080
      TEMPO 1908/1912 4SM BR SCT005 BKN100=

USA.gov is the U.S. government's official web portal to all federal, state and local government web resources and services.